Terminal Aerodrome Forecast
Issued by NWS Jackson, KY

Home | Current Version | Previous Version | Text Only | Print | Product List | Glossary On
Versions: 1 2 3 4 5 6 7 8 9 10 11 12 13 14 15 16 17 18 19 20 21 22 23 24
000
FTUS43 KJKL 050540
TAFLOZ
TAF
KLOZ 050540Z 0506/0606 VRB03KT 6SM BR VCSH SCT030 OVC200
     FM051300 VRB03KT P6SM VCSH BKN025 OVC120
     FM051600 36005KT 5SM -SHRA VCTS BKN025CB OVC120
     FM052300 VRB03KT P6SM BKN150=

USA.gov is the U.S. government's official web portal to all federal, state and local government web resources and services.